sensor_id;sensor_type;location;lat;lon;timestamp;P1;durP1;ratioP1;P2;durP2;ratioP2
18100;SDS011;9177;49.156;8.142;2023-11-19T00:02:07;1.13;;;1.03;;
18100;SDS011;9177;49.156;8.142;2023-11-19T00:04:36;1.30;;;0.93;;
18100;SDS011;9177;49.156;8.142;2023-11-19T00:07:04;1.00;;;0.97;;
18100;SDS011;9177;49.156;8.142;2023-11-19T00:09:32;2.20;;;1.10;;
18100;SDS011;9177;49.156;8.142;2023-11-19T00:12:02;0.93;;;0.87;;
18100;SDS011;9177;49.156;8.142;2023-11-19T00:14:29;1.10;;;1.00;;
18100;SDS011;9177;49.156;8.142;2023-11-19T00:16:57;0.83;;;0.83;;
18100;SDS011;9177;49.156;8.142;2023-11-19T00:19:25;1.27;;;1.13;;
18100;SDS011;9177;49.156;8.142;2023-11-19T00:21:53;0.93;;;0.80;;
18100;SDS011;9177;49.156;8.142;2023-11-19T00:24:20;1.73;;;0.90;;
18100;SDS011;9177;49.156;8.142;2023-11-19T00:26:47;1.10;;;0.73;;
18100;SDS011;9177;49.156;8.142;2023-11-19T00:29:14;1.97;;;1.00;;
18100;SDS011;9177;49.156;8.142;2023-11-19T00:31:44;0.60;;;0.60;;
18100;SDS011;9177;49.156;8.142;2023-11-19T00:34:11;1.17;;;0.90;;
18100;SDS011;9177;49.156;8.142;2023-11-19T00:36:40;0.73;;;0.70;;
18100;SDS011;9177;49.156;8.142;2023-11-19T00:39:07;0.50;;;0.50;;
18100;SDS011;9177;49.156;8.142;2023-11-19T00:41:34;0.90;;;0.70;;
18100;SDS011;9177;49.156;8.142;2023-11-19T00:44:01;1.00;;;0.77;;
18100;SDS011;9177;49.156;8.142;2023-11-19T00:46:28;1.10;;;0.90;;
18100;SDS011;9177;49.156;8.142;2023-11-19T00:48:55;0.67;;;0.67;;
18100;SDS011;9177;49.156;8.142;2023-11-19T00:51:24;0.60;;;0.60;;
18100;SDS011;9177;49.156;8.142;2023-11-19T00:53:52;0.50;;;0.50;;
18100;SDS011;9177;49.156;8.142;2023-11-19T00:56:20;0.80;;;0.60;;
18100;SDS011;9177;49.156;8.142;2023-11-19T00:58:47;1.10;;;0.67;;
18100;SDS011;9177;49.156;8.142;2023-11-19T01:01:14;0.70;;;0.70;;
18100;SDS011;9177;49.156;8.142;2023-11-19T01:03:42;0.70;;;0.60;;
18100;SDS011;9177;49.156;8.142;2023-11-19T01:06:09;0.53;;;0.53;;
18100;SDS011;9177;49.156;8.142;2023-11-19T01:08:36;0.70;;;0.70;;
18100;SDS011;9177;49.156;8.142;2023-11-19T01:11:04;0.70;;;0.70;;
18100;SDS011;9177;49.156;8.142;2023-11-19T01:13:31;0.80;;;0.60;;
18100;SDS011;9177;49.156;8.142;2023-11-19T01:15:58;0.67;;;0.60;;
18100;SDS011;9177;49.156;8.142;2023-11-19T01:18:27;1.00;;;0.60;;
18100;SDS011;9177;49.156;8.142;2023-11-19T01:20:54;0.60;;;0.43;;
18100;SDS011;9177;49.156;8.142;2023-11-19T01:23:21;0.50;;;0.50;;
18100;SDS011;9177;49.156;8.142;2023-11-19T01:25:48;0.50;;;0.50;;
18100;SDS011;9177;49.156;8.142;2023-11-19T01:28:16;1.03;;;0.60;;
18100;SDS011;9177;49.156;8.142;2023-11-19T01:30:44;0.50;;;0.50;;
18100;SDS011;9177;49.156;8.142;2023-11-19T01:33:10;0.43;;;0.40;;
18100;SDS011;9177;49.156;8.142;2023-11-19T01:35:37;0.90;;;0.50;;
18100;SDS011;9177;49.156;8.142;2023-11-19T01:38:06;0.97;;;0.60;;
18100;SDS011;9177;49.156;8.142;2023-11-19T01:40:34;0.50;;;0.50;;
18100;SDS011;9177;49.156;8.142;2023-11-19T01:43:02;0.80;;;0.50;;
18100;SDS011;9177;49.156;8.142;2023-11-19T01:45:30;0.67;;;0.40;;
18100;SDS011;9177;49.156;8.142;2023-11-19T01:47:58;0.60;;;0.50;;
18100;SDS011;9177;49.156;8.142;2023-11-19T01:50:26;0.40;;;0.40;;
18100;SDS011;9177;49.156;8.142;2023-11-19T01:52:54;0.60;;;0.40;;
18100;SDS011;9177;49.156;8.142;2023-11-19T01:55:22;0.40;;;0.40;;
18100;SDS011;9177;49.156;8.142;2023-11-19T01:57:52;0.47;;;0.47;;
18100;SDS011;9177;49.156;8.142;2023-11-19T02:00:21;1.00;;;0.57;;
18100;SDS011;9177;49.156;8.142;2023-11-19T02:02:49;0.40;;;0.30;;
18100;SDS011;9177;49.156;8.142;2023-11-19T02:05:19;0.67;;;0.43;;
18100;SDS011;9177;49.156;8.142;2023-11-19T02:07:48;0.40;;;0.40;;
18100;SDS011;9177;49.156;8.142;2023-11-19T02:10:15;0.60;;;0.50;;
18100;SDS011;9177;49.156;8.142;2023-11-19T02:12:44;0.60;;;0.37;;
18100;SDS011;9177;49.156;8.142;2023-11-19T02:15:11;0.67;;;0.50;;
18100;SDS011;9177;49.156;8.142;2023-11-19T02:17:38;0.43;;;0.40;;
18100;SDS011;9177;49.156;8.142;2023-11-19T02:20:07;1.37;;;0.30;;
18100;SDS011;9177;49.156;8.142;2023-11-19T02:22:36;0.70;;;0.40;;
18100;SDS011;9177;49.156;8.142;2023-11-19T02:25:04;0.40;;;0.30;;
18100;SDS011;9177;49.156;8.142;2023-11-19T02:27:41;0.40;;;0.40;;
18100;SDS011;9177;49.156;8.142;2023-11-19T02:30:17;0.50;;;0.50;;
18100;SDS011;9177;49.156;8.142;2023-11-19T02:32:44;0.33;;;0.30;;
18100;SDS011;9177;49.156;8.142;2023-11-19T02:35:11;0.50;;;0.30;;
18100;SDS011;9177;49.156;8.142;2023-11-19T02:37:38;0.27;;;0.27;;
18100;SDS011;9177;49.156;8.142;2023-11-19T02:40:05;0.30;;;0.30;;
18100;SDS011;9177;49.156;8.142;2023-11-19T02:42:34;0.53;;;0.30;;
18100;SDS011;9177;49.156;8.142;2023-11-19T02:45:02;1.10;;;0.50;;
18100;SDS011;9177;49.156;8.142;2023-11-19T02:47:31;0.40;;;0.30;;
18100;SDS011;9177;49.156;8.142;2023-11-19T02:49:58;0.50;;;0.47;;
18100;SDS011;9177;49.156;8.142;2023-11-19T02:52:25;0.40;;;0.30;;
18100;SDS011;9177;49.156;8.142;2023-11-19T02:54:53;0.30;;;0.30;;
18100;SDS011;9177;49.156;8.142;2023-11-19T02:57:20;0.30;;;0.30;;
18100;SDS011;9177;49.156;8.142;2023-11-19T02:59:47;0.30;;;0.30;;
18100;SDS011;9177;49.156;8.142;2023-11-19T03:02:16;0.30;;;0.30;;
18100;SDS011;9177;49.156;8.142;2023-11-19T03:04:43;0.40;;;0.30;;
18100;SDS011;9177;49.156;8.142;2023-11-19T03:07:10;0.37;;;0.30;;
18100;SDS011;9177;49.156;8.142;2023-11-19T03:09:38;0.30;;;0.30;;
18100;SDS011;9177;49.156;8.142;2023-11-19T03:12:06;0.20;;;0.20;;
18100;SDS011;9177;49.156;8.142;2023-11-19T03:14:34;4.20;;;0.40;;
18100;SDS011;9177;49.156;8.142;2023-11-19T03:17:01;0.30;;;0.30;;
18100;SDS011;9177;49.156;8.142;2023-11-19T03:19:29;0.30;;;0.30;;
18100;SDS011;9177;49.156;8.142;2023-11-19T03:21:56;0.33;;;0.33;;
18100;SDS011;9177;49.156;8.142;2023-11-19T03:24:24;0.40;;;0.40;;
18100;SDS011;9177;49.156;8.142;2023-11-19T03:26:51;0.20;;;0.20;;
18100;SDS011;9177;49.156;8.142;2023-11-19T03:29:18;0.40;;;0.40;;
18100;SDS011;9177;49.156;8.142;2023-11-19T03:31:45;0.50;;;0.33;;
18100;SDS011;9177;49.156;8.142;2023-11-19T03:34:12;0.40;;;0.40;;
18100;SDS011;9177;49.156;8.142;2023-11-19T03:36:40;0.30;;;0.30;;
18100;SDS011;9177;49.156;8.142;2023-11-19T03:39:08;0.40;;;0.40;;
18100;SDS011;9177;49.156;8.142;2023-11-19T03:41:35;0.30;;;0.30;;
18100;SDS011;9177;49.156;8.142;2023-11-19T03:44:02;0.70;;;0.23;;
18100;SDS011;9177;49.156;8.142;2023-11-19T03:46:29;0.30;;;0.20;;
18100;SDS011;9177;49.156;8.142;2023-11-19T03:48:55;0.60;;;0.40;;
18100;SDS011;9177;49.156;8.142;2023-11-19T03:51:22;0.30;;;0.30;;
18100;SDS011;9177;49.156;8.142;2023-11-19T03:53:50;0.30;;;0.30;;
18100;SDS011;9177;49.156;8.142;2023-11-19T03:56:17;0.30;;;0.30;;
18100;SDS011;9177;49.156;8.142;2023-11-19T03:58:46;1.23;;;0.30;;
18100;SDS011;9177;49.156;8.142;2023-11-19T04:01:12;0.57;;;0.50;;
18100;SDS011;9177;49.156;8.142;2023-11-19T04:03:39;0.40;;;0.40;;
18100;SDS011;9177;49.156;8.142;2023-11-19T04:06:06;0.30;;;0.30;;
18100;SDS011;9177;49.156;8.142;2023-11-19T04:08:34;0.40;;;0.40;;
18100;SDS011;9177;49.156;8.142;2023-11-19T04:11:03;0.50;;;0.33;;
18100;SDS011;9177;49.156;8.142;2023-11-19T04:13:30;0.30;;;0.30;;
18100;SDS011;9177;49.156;8.142;2023-11-19T04:15:57;0.40;;;0.40;;
18100;SDS011;9177;49.156;8.142;2023-11-19T04:18:24;0.50;;;0.50;;
18100;SDS011;9177;49.156;8.142;2023-11-19T04:20:51;0.97;;;0.40;;
18100;SDS011;9177;49.156;8.142;2023-11-19T04:23:18;0.40;;;0.30;;
18100;SDS011;9177;49.156;8.142;2023-11-19T04:25:44;0.47;;;0.47;;
18100;SDS011;9177;49.156;8.142;2023-11-19T04:28:13;0.60;;;0.50;;
18100;SDS011;9177;49.156;8.142;2023-11-19T04:30:40;0.57;;;0.40;;
18100;SDS011;9177;49.156;8.142;2023-11-19T04:33:06;0.30;;;0.30;;
18100;SDS011;9177;49.156;8.142;2023-11-19T04:35:33;0.33;;;0.30;;
18100;SDS011;9177;49.156;8.142;2023-11-19T04:38:00;0.40;;;0.40;;
18100;SDS011;9177;49.156;8.142;2023-11-19T04:40:27;0.43;;;0.40;;
18100;SDS011;9177;49.156;8.142;2023-11-19T04:42:54;0.73;;;0.40;;
18100;SDS011;9177;49.156;8.142;2023-11-19T04:45:22;0.43;;;0.43;;
18100;SDS011;9177;49.156;8.142;2023-11-19T04:47:49;0.50;;;0.40;;
18100;SDS011;9177;49.156;8.142;2023-11-19T04:50:16;0.60;;;0.40;;
18100;SDS011;9177;49.156;8.142;2023-11-19T04:52:43;0.40;;;0.30;;
18100;SDS011;9177;49.156;8.142;2023-11-19T04:55:10;0.40;;;0.40;;
18100;SDS011;9177;49.156;8.142;2023-11-19T04:57:39;0.40;;;0.40;;
18100;SDS011;9177;49.156;8.142;2023-11-19T05:00:06;0.60;;;0.43;;
18100;SDS011;9177;49.156;8.142;2023-11-19T05:02:36;0.30;;;0.30;;
18100;SDS011;9177;49.156;8.142;2023-11-19T05:05:03;0.53;;;0.40;;
18100;SDS011;9177;49.156;8.142;2023-11-19T05:07:31;0.37;;;0.37;;
18100;SDS011;9177;49.156;8.142;2023-11-19T05:09:58;0.33;;;0.33;;
18100;SDS011;9177;49.156;8.142;2023-11-19T05:12:25;0.40;;;0.40;;
18100;SDS011;9177;49.156;8.142;2023-11-19T05:14:52;0.60;;;0.50;;
18100;SDS011;9177;49.156;8.142;2023-11-19T05:17:19;0.60;;;0.40;;
18100;SDS011;9177;49.156;8.142;2023-11-19T05:19:47;0.63;;;0.30;;
18100;SDS011;9177;49.156;8.142;2023-11-19T05:22:14;0.30;;;0.30;;
18100;SDS011;9177;49.156;8.142;2023-11-19T05:24:41;0.53;;;0.53;;
18100;SDS011;9177;49.156;8.142;2023-11-19T05:27:08;0.43;;;0.40;;
18100;SDS011;9177;49.156;8.142;2023-11-19T05:29:36;0.40;;;0.30;;
18100;SDS011;9177;49.156;8.142;2023-11-19T05:32:04;0.40;;;0.30;;
18100;SDS011;9177;49.156;8.142;2023-11-19T05:34:32;0.67;;;0.40;;
18100;SDS011;9177;49.156;8.142;2023-11-19T05:37:00;1.00;;;0.47;;
18100;SDS011;9177;49.156;8.142;2023-11-19T05:39:27;0.97;;;0.50;;
18100;SDS011;9177;49.156;8.142;2023-11-19T05:41:54;0.60;;;0.40;;
18100;SDS011;9177;49.156;8.142;2023-11-19T05:44:21;0.40;;;0.40;;
18100;SDS011;9177;49.156;8.142;2023-11-19T05:46:48;0.40;;;0.40;;
18100;SDS011;9177;49.156;8.142;2023-11-19T05:49:15;0.30;;;0.30;;
18100;SDS011;9177;49.156;8.142;2023-11-19T05:51:42;0.43;;;0.43;;
18100;SDS011;9177;49.156;8.142;2023-11-19T05:54:10;1.27;;;0.47;;
18100;SDS011;9177;49.156;8.142;2023-11-19T05:56:38;0.50;;;0.40;;
18100;SDS011;9177;49.156;8.142;2023-11-19T05:59:06;0.70;;;0.57;;
18100;SDS011;9177;49.156;8.142;2023-11-19T06:01:39;0.30;;;0.30;;
18100;SDS011;9177;49.156;8.142;2023-11-19T06:04:07;0.47;;;0.47;;
18100;SDS011;9177;49.156;8.142;2023-11-19T06:06:35;0.47;;;0.40;;
18100;SDS011;9177;49.156;8.142;2023-11-19T06:09:02;0.30;;;0.30;;
18100;SDS011;9177;49.156;8.142;2023-11-19T06:11:32;0.57;;;0.40;;
18100;SDS011;9177;49.156;8.142;2023-11-19T06:14:01;0.40;;;0.40;;
18100;SDS011;9177;49.156;8.142;2023-11-19T06:16:30;1.00;;;0.37;;
18100;SDS011;9177;49.156;8.142;2023-11-19T06:18:57;0.80;;;0.47;;
18100;SDS011;9177;49.156;8.142;2023-11-19T06:21:24;0.50;;;0.50;;
18100;SDS011;9177;49.156;8.142;2023-11-19T06:23:51;0.50;;;0.50;;
18100;SDS011;9177;49.156;8.142;2023-11-19T06:26:18;0.50;;;0.40;;
18100;SDS011;9177;49.156;8.142;2023-11-19T06:28:48;0.33;;;0.33;;
18100;SDS011;9177;49.156;8.142;2023-11-19T06:31:15;0.80;;;0.43;;
18100;SDS011;9177;49.156;8.142;2023-11-19T06:33:42;0.30;;;0.30;;
18100;SDS011;9177;49.156;8.142;2023-11-19T06:36:09;0.60;;;0.40;;
18100;SDS011;9177;49.156;8.142;2023-11-19T06:38:36;0.80;;;0.40;;
18100;SDS011;9177;49.156;8.142;2023-11-19T06:41:05;0.70;;;0.30;;
18100;SDS011;9177;49.156;8.142;2023-11-19T06:43:33;0.80;;;0.47;;
18100;SDS011;9177;49.156;8.142;2023-11-19T06:46:01;0.50;;;0.27;;
18100;SDS011;9177;49.156;8.142;2023-11-19T06:48:30;0.30;;;0.30;;
18100;SDS011;9177;49.156;8.142;2023-11-19T06:50:58;0.30;;;0.30;;
18100;SDS011;9177;49.156;8.142;2023-11-19T06:53:25;0.53;;;0.40;;
18100;SDS011;9177;49.156;8.142;2023-11-19T06:55:53;0.40;;;0.40;;
18100;SDS011;9177;49.156;8.142;2023-11-19T06:58:20;0.50;;;0.50;;
18100;SDS011;9177;49.156;8.142;2023-11-19T07:00:47;0.30;;;0.30;;
18100;SDS011;9177;49.156;8.142;2023-11-19T07:03:17;0.50;;;0.50;;
18100;SDS011;9177;49.156;8.142;2023-11-19T07:05:45;0.53;;;0.43;;
18100;SDS011;9177;49.156;8.142;2023-11-19T07:08:12;0.50;;;0.40;;
18100;SDS011;9177;49.156;8.142;2023-11-19T07:10:39;1.27;;;0.57;;
18100;SDS011;9177;49.156;8.142;2023-11-19T07:13:06;0.40;;;0.40;;
18100;SDS011;9177;49.156;8.142;2023-11-19T07:15:33;0.73;;;0.40;;
18100;SDS011;9177;49.156;8.142;2023-11-19T07:18:00;0.40;;;0.40;;
18100;SDS011;9177;49.156;8.142;2023-11-19T07:20:28;0.63;;;0.50;;
18100;SDS011;9177;49.156;8.142;2023-11-19T07:22:56;0.50;;;0.40;;
18100;SDS011;9177;49.156;8.142;2023-11-19T07:25:23;0.57;;;0.30;;
18100;SDS011;9177;49.156;8.142;2023-11-19T07:27:51;0.33;;;0.33;;
18100;SDS011;9177;49.156;8.142;2023-11-19T07:30:18;0.40;;;0.40;;
18100;SDS011;9177;49.156;8.142;2023-11-19T07:32:45;0.40;;;0.30;;
18100;SDS011;9177;49.156;8.142;2023-11-19T07:35:13;0.67;;;0.50;;
18100;SDS011;9177;49.156;8.142;2023-11-19T07:37:43;0.30;;;0.30;;
18100;SDS011;9177;49.156;8.142;2023-11-19T07:40:11;0.70;;;0.40;;
18100;SDS011;9177;49.156;8.142;2023-11-19T07:42:38;1.97;;;0.47;;
18100;SDS011;9177;49.156;8.142;2023-11-19T07:45:05;0.40;;;0.40;;
18100;SDS011;9177;49.156;8.142;2023-11-19T07:47:36;0.40;;;0.30;;
18100;SDS011;9177;49.156;8.142;2023-11-19T07:50:03;0.50;;;0.40;;
18100;SDS011;9177;49.156;8.142;2023-11-19T07:52:31;0.50;;;0.50;;
18100;SDS011;9177;49.156;8.142;2023-11-19T07:54:59;0.40;;;0.30;;
18100;SDS011;9177;49.156;8.142;2023-11-19T07:57:27;0.63;;;0.30;;
18100;SDS011;9177;49.156;8.142;2023-11-19T07:59:56;0.30;;;0.30;;
18100;SDS011;9177;49.156;8.142;2023-11-19T08:02:23;0.93;;;0.40;;
18100;SDS011;9177;49.156;8.142;2023-11-19T08:04:50;0.20;;;0.20;;
18100;SDS011;9177;49.156;8.142;2023-11-19T08:07:20;0.57;;;0.40;;
18100;SDS011;9177;49.156;8.142;2023-11-19T08:09:47;0.27;;;0.23;;
18100;SDS011;9177;49.156;8.142;2023-11-19T08:12:15;0.60;;;0.40;;
18100;SDS011;9177;49.156;8.142;2023-11-19T08:14:42;0.30;;;0.30;;
18100;SDS011;9177;49.156;8.142;2023-11-19T08:17:10;0.33;;;0.33;;
18100;SDS011;9177;49.156;8.142;2023-11-19T08:19:37;0.47;;;0.37;;
18100;SDS011;9177;49.156;8.142;2023-11-19T08:22:04;0.50;;;0.40;;
18100;SDS011;9177;49.156;8.142;2023-11-19T08:24:31;0.30;;;0.30;;
18100;SDS011;9177;49.156;8.142;2023-11-19T08:26:58;0.67;;;0.30;;
18100;SDS011;9177;49.156;8.142;2023-11-19T08:29:26;1.70;;;0.40;;
18100;SDS011;9177;49.156;8.142;2023-11-19T08:31:54;0.53;;;0.30;;
18100;SDS011;9177;49.156;8.142;2023-11-19T08:34:21;0.27;;;0.27;;
18100;SDS011;9177;49.156;8.142;2023-11-19T08:36:49;0.47;;;0.40;;
18100;SDS011;9177;49.156;8.142;2023-11-19T08:39:18;0.47;;;0.30;;
18100;SDS011;9177;49.156;8.142;2023-11-19T08:41:46;0.27;;;0.20;;
18100;SDS011;9177;49.156;8.142;2023-11-19T08:44:13;0.83;;;0.43;;
18100;SDS011;9177;49.156;8.142;2023-11-19T08:46:47;1.27;;;0.37;;
18100;SDS011;9177;49.156;8.142;2023-11-19T08:49:14;0.30;;;0.30;;
18100;SDS011;9177;49.156;8.142;2023-11-19T08:51:41;0.30;;;0.30;;
18100;SDS011;9177;49.156;8.142;2023-11-19T08:54:08;0.77;;;0.50;;
18100;SDS011;9177;49.156;8.142;2023-11-19T08:56:35;0.70;;;0.40;;
18100;SDS011;9177;49.156;8.142;2023-11-19T08:59:04;0.40;;;0.40;;
18100;SDS011;9177;49.156;8.142;2023-11-19T09:01:31;0.40;;;0.27;;
18100;SDS011;9177;49.156;8.142;2023-11-19T09:03:59;0.50;;;0.37;;
18100;SDS011;9177;49.156;8.142;2023-11-19T09:06:26;0.40;;;0.40;;
18100;SDS011;9177;49.156;8.142;2023-11-19T09:08:53;1.23;;;0.50;;
18100;SDS011;9177;49.156;8.142;2023-11-19T09:11:25;0.93;;;0.50;;
18100;SDS011;9177;49.156;8.142;2023-11-19T09:13:53;0.50;;;0.33;;
18100;SDS011;9177;49.156;8.142;2023-11-19T09:16:20;1.10;;;0.40;;
18100;SDS011;9177;49.156;8.142;2023-11-19T09:18:47;0.73;;;0.40;;
18100;SDS011;9177;49.156;8.142;2023-11-19T09:21:16;0.50;;;0.50;;
18100;SDS011;9177;49.156;8.142;2023-11-19T09:23:43;0.73;;;0.40;;
18100;SDS011;9177;49.156;8.142;2023-11-19T09:26:13;0.40;;;0.40;;
18100;SDS011;9177;49.156;8.142;2023-11-19T09:28:40;0.63;;;0.33;;
18100;SDS011;9177;49.156;8.142;2023-11-19T09:31:16;0.50;;;0.40;;
18100;SDS011;9177;49.156;8.142;2023-11-19T09:33:44;0.50;;;0.47;;
18100;SDS011;9177;49.156;8.142;2023-11-19T09:36:12;0.80;;;0.40;;
18100;SDS011;9177;49.156;8.142;2023-11-19T09:38:43;0.97;;;0.40;;
18100;SDS011;9177;49.156;8.142;2023-11-19T09:41:10;0.50;;;0.40;;
18100;SDS011;9177;49.156;8.142;2023-11-19T09:43:38;0.67;;;0.43;;
18100;SDS011;9177;49.156;8.142;2023-11-19T09:46:06;0.70;;;0.40;;
18100;SDS011;9177;49.156;8.142;2023-11-19T09:48:37;0.70;;;0.40;;
18100;SDS011;9177;49.156;8.142;2023-11-19T09:51:05;0.67;;;0.30;;
18100;SDS011;9177;49.156;8.142;2023-11-19T09:53:33;0.97;;;0.40;;
18100;SDS011;9177;49.156;8.142;2023-11-19T09:56:03;0.80;;;0.40;;
18100;SDS011;9177;49.156;8.142;2023-11-19T09:58:33;0.50;;;0.30;;
18100;SDS011;9177;49.156;8.142;2023-11-19T10:01:01;1.03;;;0.50;;
18100;SDS011;9177;49.156;8.142;2023-11-19T10:03:32;1.73;;;0.40;;
18100;SDS011;9177;49.156;8.142;2023-11-19T10:06:03;0.40;;;0.30;;
18100;SDS011;9177;49.156;8.142;2023-11-19T10:08:31;0.37;;;0.30;;
18100;SDS011;9177;49.156;8.142;2023-11-19T10:10:58;1.00;;;0.40;;
18100;SDS011;9177;49.156;8.142;2023-11-19T10:13:27;0.40;;;0.40;;
18100;SDS011;9177;49.156;8.142;2023-11-19T10:15:55;0.50;;;0.50;;
18100;SDS011;9177;49.156;8.142;2023-11-19T10:18:24;0.77;;;0.40;;
18100;SDS011;9177;49.156;8.142;2023-11-19T10:20:52;0.60;;;0.30;;
18100;SDS011;9177;49.156;8.142;2023-11-19T10:23:20;0.40;;;0.40;;
18100;SDS011;9177;49.156;8.142;2023-11-19T10:25:47;0.33;;;0.30;;
18100;SDS011;9177;49.156;8.142;2023-11-19T10:28:14;0.57;;;0.40;;
18100;SDS011;9177;49.156;8.142;2023-11-19T10:30:44;0.80;;;0.40;;
18100;SDS011;9177;49.156;8.142;2023-11-19T10:33:14;1.17;;;0.50;;
18100;SDS011;9177;49.156;8.142;2023-11-19T10:35:52;0.57;;;0.30;;
18100;SDS011;9177;49.156;8.142;2023-11-19T10:38:19;0.40;;;0.23;;
18100;SDS011;9177;49.156;8.142;2023-11-19T10:40:47;0.20;;;0.20;;
18100;SDS011;9177;49.156;8.142;2023-11-19T10:43:16;0.93;;;0.30;;
18100;SDS011;9177;49.156;8.142;2023-11-19T10:45:44;0.87;;;0.40;;
18100;SDS011;9177;49.156;8.142;2023-11-19T10:48:12;0.50;;;0.30;;
18100;SDS011;9177;49.156;8.142;2023-11-19T10:50:39;0.80;;;0.40;;
18100;SDS011;9177;49.156;8.142;2023-11-19T10:53:08;1.00;;;0.40;;
18100;SDS011;9177;49.156;8.142;2023-11-19T10:55:38;0.77;;;0.40;;
18100;SDS011;9177;49.156;8.142;2023-11-19T10:58:06;0.87;;;0.67;;
18100;SDS011;9177;49.156;8.142;2023-11-19T11:00:37;1.00;;;0.40;;
18100;SDS011;9177;49.156;8.142;2023-11-19T11:03:08;1.87;;;0.30;;
18100;SDS011;9177;49.156;8.142;2023-11-19T11:05:37;0.67;;;0.40;;
18100;SDS011;9177;49.156;8.142;2023-11-19T11:08:06;1.03;;;0.40;;
18100;SDS011;9177;49.156;8.142;2023-11-19T11:10:35;0.60;;;0.40;;
18100;SDS011;9177;49.156;8.142;2023-11-19T11:13:09;0.60;;;0.50;;
18100;SDS011;9177;49.156;8.142;2023-11-19T11:15:37;0.70;;;0.40;;
18100;SDS011;9177;49.156;8.142;2023-11-19T11:18:08;0.63;;;0.30;;
18100;SDS011;9177;49.156;8.142;2023-11-19T11:20:35;1.43;;;0.40;;
18100;SDS011;9177;49.156;8.142;2023-11-19T11:23:09;0.43;;;0.23;;
18100;SDS011;9177;49.156;8.142;2023-11-19T11:25:56;0.60;;;0.40;;
18100;SDS011;9177;49.156;8.142;2023-11-19T11:28:34;1.70;;;0.60;;
18100;SDS011;9177;49.156;8.142;2023-11-19T11:31:15;0.60;;;0.40;;
18100;SDS011;9177;49.156;8.142;2023-11-19T11:36:58;1.10;;;0.50;;
18100;SDS011;9177;49.156;8.142;2023-11-19T11:39:36;0.83;;;0.50;;
18100;SDS011;9177;49.156;8.142;2023-11-19T11:45:01;0.87;;;0.40;;
18100;SDS011;9177;49.156;8.142;2023-11-19T11:50:34;0.63;;;0.50;;
18100;SDS011;9177;49.156;8.142;2023-11-19T11:53:15;0.30;;;0.30;;
18100;SDS011;9177;49.156;8.142;2023-11-19T11:55:53;1.33;;;0.33;;
18100;SDS011;9177;49.156;8.142;2023-11-19T11:58:31;0.70;;;0.50;;
18100;SDS011;9177;49.156;8.142;2023-11-19T12:01:03;1.87;;;0.40;;
18100;SDS011;9177;49.156;8.142;2023-11-19T12:03:34;1.73;;;0.70;;
18100;SDS011;9177;49.156;8.142;2023-11-19T12:06:05;1.27;;;0.40;;
18100;SDS011;9177;49.156;8.142;2023-11-19T12:08:34;0.53;;;0.40;;
18100;SDS011;9177;49.156;8.142;2023-11-19T12:11:01;0.60;;;0.50;;
18100;SDS011;9177;49.156;8.142;2023-11-19T12:13:52;0.43;;;0.30;;
18100;SDS011;9177;49.156;8.142;2023-11-19T12:16:23;1.43;;;0.60;;
18100;SDS011;9177;49.156;8.142;2023-11-19T12:18:55;1.03;;;0.50;;
18100;SDS011;9177;49.156;8.142;2023-11-19T12:21:30;1.13;;;0.40;;
18100;SDS011;9177;49.156;8.142;2023-11-19T12:23:58;2.77;;;0.40;;
18100;SDS011;9177;49.156;8.142;2023-11-19T12:26:41;0.53;;;0.30;;
18100;SDS011;9177;49.156;8.142;2023-11-19T12:29:09;1.50;;;0.50;;
18100;SDS011;9177;49.156;8.142;2023-11-19T12:31:36;2.33;;;0.63;;
18100;SDS011;9177;49.156;8.142;2023-11-19T12:34:07;1.57;;;0.40;;
18100;SDS011;9177;49.156;8.142;2023-11-19T12:36:40;0.50;;;0.30;;
18100;SDS011;9177;49.156;8.142;2023-11-19T12:39:10;1.02;;;0.35;;
18100;SDS011;9177;49.156;8.142;2023-11-19T12:41:49;1.00;;;0.50;;
18100;SDS011;9177;49.156;8.142;2023-11-19T12:44:17;2.03;;;0.50;;
18100;SDS011;9177;49.156;8.142;2023-11-19T12:46:45;0.93;;;0.80;;
18100;SDS011;9177;49.156;8.142;2023-11-19T12:49:12;4.20;;;3.53;;
18100;SDS011;9177;49.156;8.142;2023-11-19T12:51:40;11.60;;;10.50;;
18100;SDS011;9177;49.156;8.142;2023-11-19T12:54:08;10.30;;;9.48;;
18100;SDS011;9177;49.156;8.142;2023-11-19T12:56:35;16.53;;;15.13;;
18100;SDS011;9177;49.156;8.142;2023-11-19T12:59:12;19.80;;;18.23;;
18100;SDS011;9177;49.156;8.142;2023-11-19T13:01:39;21.05;;;19.20;;
18100;SDS011;9177;49.156;8.142;2023-11-19T13:04:17;17.17;;;15.75;;
18100;SDS011;9177;49.156;8.142;2023-11-19T13:06:46;16.23;;;14.48;;
18100;SDS011;9177;49.156;8.142;2023-11-19T13:09:23;18.93;;;17.33;;
18100;SDS011;9177;49.156;8.142;2023-11-19T13:11:51;21.92;;;20.13;;
18100;SDS011;9177;49.156;8.142;2023-11-19T13:14:18;19.00;;;17.57;;
18100;SDS011;9177;49.156;8.142;2023-11-19T13:16:46;21.70;;;19.90;;
18100;SDS011;9177;49.156;8.142;2023-11-19T13:19:14;22.50;;;20.50;;
18100;SDS011;9177;49.156;8.142;2023-11-19T13:21:44;21.77;;;20.07;;
18100;SDS011;9177;49.156;8.142;2023-11-19T13:24:13;22.20;;;20.40;;
18100;SDS011;9177;49.156;8.142;2023-11-19T13:26:40;29.92;;;27.40;;
18100;SDS011;9177;49.156;8.142;2023-11-19T13:29:08;23.73;;;21.73;;
18100;SDS011;9177;49.156;8.142;2023-11-19T13:31:36;22.92;;;21.13;;
18100;SDS011;9177;49.156;8.142;2023-11-19T13:34:04;22.92;;;21.02;;
18100;SDS011;9177;49.156;8.142;2023-11-19T13:36:32;23.75;;;21.83;;
18100;SDS011;9177;49.156;8.142;2023-11-19T13:39:01;22.77;;;20.77;;
18100;SDS011;9177;49.156;8.142;2023-11-19T13:41:29;21.43;;;19.67;;
18100;SDS011;9177;49.156;8.142;2023-11-19T13:43:56;21.63;;;19.93;;
18100;SDS011;9177;49.156;8.142;2023-11-19T13:46:23;20.37;;;18.67;;
18100;SDS011;9177;49.156;8.142;2023-11-19T13:48:51;17.50;;;15.68;;
18100;SDS011;9177;49.156;8.142;2023-11-19T13:51:18;17.43;;;15.90;;
18100;SDS011;9177;49.156;8.142;2023-11-19T13:53:45;15.30;;;13.90;;
18100;SDS011;9177;49.156;8.142;2023-11-19T13:56:14;13.07;;;11.83;;
18100;SDS011;9177;49.156;8.142;2023-11-19T13:58:41;13.53;;;12.20;;
18100;SDS011;9177;49.156;8.142;2023-11-19T14:01:08;12.60;;;11.40;;
18100;SDS011;9177;49.156;8.142;2023-11-19T14:03:35;12.97;;;11.77;;
18100;SDS011;9177;49.156;8.142;2023-11-19T14:06:02;11.23;;;10.23;;
18100;SDS011;9177;49.156;8.142;2023-11-19T14:08:29;12.00;;;10.10;;
18100;SDS011;9177;49.156;8.142;2023-11-19T14:10:57;11.73;;;9.13;;
18100;SDS011;9177;49.156;8.142;2023-11-19T14:13:25;10.48;;;9.43;;
18100;SDS011;9177;49.156;8.142;2023-11-19T14:15:52;10.15;;;9.25;;
18100;SDS011;9177;49.156;8.142;2023-11-19T14:18:19;9.80;;;8.80;;
18100;SDS011;9177;49.156;8.142;2023-11-19T14:20:46;10.90;;;8.00;;
18100;SDS011;9177;49.156;8.142;2023-11-19T14:23:14;15.25;;;8.55;;
18100;SDS011;9177;49.156;8.142;2023-11-19T14:25:41;10.95;;;7.55;;
18100;SDS011;9177;49.156;8.142;2023-11-19T14:28:09;13.75;;;8.05;;
18100;SDS011;9177;49.156;8.142;2023-11-19T14:30:38;16.27;;;8.57;;
18100;SDS011;9177;49.156;8.142;2023-11-19T14:33:06;15.70;;;8.18;;
18100;SDS011;9177;49.156;8.142;2023-11-19T14:35:36;20.38;;;8.40;;
18100;SDS011;9177;49.156;8.142;2023-11-19T14:38:03;24.43;;;7.93;;
18100;SDS011;9177;49.156;8.142;2023-11-19T14:40:35;13.88;;;7.75;;
18100;SDS011;9177;49.156;8.142;2023-11-19T14:43:02;12.37;;;6.30;;
18100;SDS011;9177;49.156;8.142;2023-11-19T14:45:29;11.20;;;6.63;;
18100;SDS011;9177;49.156;8.142;2023-11-19T14:47:58;13.73;;;5.90;;
18100;SDS011;9177;49.156;8.142;2023-11-19T14:50:25;9.03;;;5.57;;
18100;SDS011;9177;49.156;8.142;2023-11-19T14:52:53;8.40;;;5.17;;
18100;SDS011;9177;49.156;8.142;2023-11-19T14:55:20;9.77;;;6.60;;
18100;SDS011;9177;49.156;8.142;2023-11-19T14:57:47;10.07;;;6.23;;
18100;SDS011;9177;49.156;8.142;2023-11-19T15:00:15;12.25;;;6.97;;
18100;SDS011;9177;49.156;8.142;2023-11-19T15:02:43;11.67;;;8.27;;
18100;SDS011;9177;49.156;8.142;2023-11-19T15:05:12;12.90;;;11.00;;
18100;SDS011;9177;49.156;8.142;2023-11-19T15:07:39;10.73;;;9.70;;
18100;SDS011;9177;49.156;8.142;2023-11-19T15:10:07;12.97;;;9.67;;
18100;SDS011;9177;49.156;8.142;2023-11-19T15:12:36;12.95;;;8.57;;
18100;SDS011;9177;49.156;8.142;2023-11-19T15:15:05;12.03;;;7.80;;